createdAt,value
2023-04-01T00:00:06.708Z,30.15
2023-04-01T00:02:38.239Z,28.73
2023-04-01T00:05:07.756Z,27.67
2023-04-01T00:07:36.042Z,26.08
2023-04-01T00:10:07.825Z,27.60
2023-04-01T00:12:38.464Z,26.02
2023-04-01T00:15:08.589Z,25.45
2023-04-01T00:17:37.264Z,24.13
2023-04-01T00:20:06.031Z,25.17
2023-04-01T00:22:37.592Z,25.00
2023-04-01T00:25:10.104Z,24.80
2023-04-01T00:27:38.354Z,24.15
2023-04-01T00:30:08.284Z,24.30
2023-04-01T00:32:39.775Z,22.45
2023-04-01T00:35:14.259Z,23.60
2023-04-01T00:37:42.801Z,24.38
2023-04-01T00:40:25.600Z,24.25
2023-04-01T00:42:55.881Z,24.73
2023-04-01T00:45:34.596Z,23.92
2023-04-01T00:48:12.865Z,24.67
2023-04-01T00:50:45.946Z,23.13
2023-04-01T00:53:15.101Z,22.52
2023-04-01T00:55:51.455Z,22.88
2023-04-01T00:58:26.787Z,22.15
2023-04-01T01:00:57.803Z,22.13
2023-04-01T01:03:26.129Z,22.40
2023-04-01T01:06:12.949Z,20.55
2023-04-01T01:08:57.408Z,20.48
2023-04-01T01:11:42.791Z,19.75
2023-04-01T01:14:20.855Z,19.70
2023-04-01T01:16:57.709Z,19.42
2023-04-01T01:19:49.372Z,18.20
2023-04-01T01:22:33.099Z,20.10
2023-04-01T01:25:21.182Z,19.98
2023-04-01T01:28:01.048Z,18.63
2023-04-01T01:30:40.967Z,18.77
2023-04-01T01:33:37.173Z,18.55
2023-04-01T01:36:09.442Z,18.25
2023-04-01T01:38:38.964Z,19.15
2023-04-01T01:41:09.624Z,18.42
2023-04-01T01:43:42.490Z,18.85
2023-04-01T01:46:15.451Z,18.20
2023-04-01T01:48:45.900Z,18.73
2023-04-01T01:51:15.701Z,17.55
2023-04-01T01:53:44.086Z,19.25
2023-04-01T01:56:15.103Z,18.52
2023-04-01T01:58:46.668Z,17.70
2023-04-01T02:01:17.862Z,17.75
2023-04-01T02:03:48.691Z,18.60
2023-04-01T02:06:23.446Z,17.52
2023-04-01T02:08:55.739Z,17.58
2023-04-01T02:11:30.574Z,18.17
2023-04-01T02:14:03.974Z,19.00
2023-04-01T02:16:37.162Z,17.42
2023-04-01T02:19:08.674Z,18.58
2023-04-01T02:21:41.541Z,17.35
2023-04-01T02:24:14.441Z,17.27
2023-04-01T02:26:43.127Z,18.75
2023-04-01T02:29:13.914Z,18.27
2023-04-01T02:31:42.569Z,18.10
2023-04-01T02:34:11.122Z,18.33
2023-04-01T02:36:41.180Z,19.02
2023-04-01T02:39:10.302Z,19.95
2023-04-01T02:41:42.308Z,18.92
2023-04-01T02:44:11.380Z,19.83
2023-04-01T02:46:40.011Z,19.45
2023-04-01T02:49:08.594Z,18.30
2023-04-01T02:51:36.955Z,19.13
2023-04-01T02:54:06.838Z,19.48
2023-04-01T02:56:35.094Z,19.27
2023-04-01T02:59:03.213Z,19.60
2023-04-01T03:01:31.601Z,19.98
2023-04-01T03:03:59.731Z,19.83
2023-04-01T03:06:28.115Z,20.88
2023-04-01T03:08:59.477Z,20.42
2023-04-01T03:11:29.600Z,22.17
2023-04-01T03:13:57.872Z,20.92
2023-04-01T03:16:26.047Z,22.67
2023-04-01T03:18:56.446Z,22.40
2023-04-01T03:21:25.941Z,23.10
2023-04-01T03:23:54.742Z,23.88
2023-04-01T03:26:23.844Z,24.67
2023-04-01T03:28:53.579Z,22.73
2023-04-01T03:31:23.628Z,21.83
2023-04-01T03:33:56.469Z,22.48
2023-04-01T03:36:24.677Z,22.33
2023-04-01T03:38:52.830Z,22.60
2023-04-01T03:41:21.966Z,22.60
2023-04-01T03:43:50.297Z,22.52
2023-04-01T03:46:21.974Z,23.23
2023-04-01T03:48:50.296Z,22.33
2023-04-01T03:51:18.588Z,22.67
2023-04-01T03:53:49.236Z,22.67
2023-04-01T03:56:17.298Z,22.35
2023-04-01T03:58:45.398Z,22.40
2023-04-01T04:01:18.534Z,23.08
2023-04-01T04:03:50.201Z,23.00
2023-04-01T04:06:20.239Z,22.60
2023-04-01T04:08:48.600Z,22.27
2023-04-01T04:11:16.785Z,22.33
2023-04-01T04:13:45.732Z,22.70
2023-04-01T04:16:14.197Z,22.17
2023-04-01T04:18:42.450Z,22.40
2023-04-01T04:21:15.301Z,22.02
2023-04-01T04:23:43.855Z,23.33
2023-04-01T04:26:13.685Z,23.23
2023-04-01T04:28:42.052Z,24.10
2023-04-01T04:31:10.436Z,23.10
2023-04-01T04:33:39.014Z,23.73
2023-04-01T04:36:07.826Z,23.83
2023-04-01T04:38:37.636Z,24.25
2023-04-01T04:41:10.233Z,24.70
2023-04-01T04:43:38.773Z,25.10
2023-04-01T04:46:08.261Z,24.33
2023-04-01T04:48:36.423Z,24.65
2023-04-01T04:51:05.570Z,25.02
2023-04-01T04:53:33.683Z,23.90
2023-04-01T04:56:03.249Z,24.80
2023-04-01T04:58:31.555Z,24.58
2023-04-01T05:00:59.872Z,24.95
2023-04-01T05:03:28.152Z,25.15
2023-04-01T05:05:56.945Z,25.00
2023-04-01T05:08:25.308Z,25.50
2023-04-01T05:10:53.674Z,25.13
2023-04-01T05:13:23.406Z,23.45
2023-04-01T05:15:51.518Z,23.70
2023-04-01T05:18:19.849Z,25.45
2023-04-01T05:20:52.524Z,24.30
2023-04-01T05:23:22.287Z,25.08
2023-04-01T05:25:52.046Z,24.05
2023-04-01T05:28:20.632Z,24.52
2023-04-01T05:30:50.460Z,24.40
2023-04-01T05:33:18.743Z,24.20
2023-04-01T05:35:46.888Z,23.92
2023-04-01T05:38:15.072Z,25.10
2023-04-01T05:40:43.593Z,25.25
2023-04-01T05:43:11.781Z,24.17
2023-04-01T05:45:39.948Z,26.30
2023-04-01T05:48:09.445Z,24.83
2023-04-01T05:50:37.600Z,24.00
2023-04-01T05:53:05.876Z,25.33
2023-04-01T05:55:34.167Z,24.67
2023-04-01T05:58:02.493Z,24.88
2023-04-01T06:00:30.594Z,24.13
2023-04-01T06:03:00.942Z,26.50
2023-04-01T06:05:37.613Z,23.88
2023-04-01T06:08:12.296Z,25.08
2023-04-01T06:10:52.724Z,24.48
2023-04-01T06:13:29.147Z,25.20
2023-04-01T06:16:06.033Z,23.98
2023-04-01T06:18:51.303Z,23.63
2023-04-01T06:22:10.016Z,24.05
2023-04-01T06:24:55.794Z,23.80
2023-04-01T06:27:39.035Z,24.35
2023-04-01T06:30:25.160Z,24.27
2023-04-01T06:33:12.314Z,24.63
2023-04-01T06:35:54.964Z,23.83
2023-04-01T06:38:45.858Z,23.67
2023-04-01T06:41:32.139Z,24.52
2023-04-01T06:44:13.424Z,23.40
2023-04-01T06:46:47.702Z,24.48
2023-04-01T06:49:42.988Z,22.95
2023-04-01T06:52:20.761Z,23.95
2023-04-01T06:54:54.928Z,22.38
2023-04-01T06:57:32.223Z,21.73
2023-04-01T07:00:03.008Z,22.35
2023-04-01T07:02:40.901Z,21.00
2023-04-01T07:05:09.818Z,21.10
2023-04-01T07:07:41.899Z,21.63
2023-04-01T07:10:19.248Z,20.85
2023-04-01T07:12:52.063Z,21.05
2023-04-01T07:15:27.683Z,21.65
2023-04-01T07:18:03.843Z,19.88
2023-04-01T07:20:34.447Z,20.05
2023-04-01T07:23:05.237Z,19.08
2023-04-01T07:25:38.958Z,19.23
2023-04-01T07:28:08.549Z,19.15
2023-04-01T07:30:46.941Z,18.48
2023-04-01T07:48:37.693Z,19.95
2023-04-01T07:51:14.780Z,20.48
2023-04-01T07:53:49.384Z,21.23
2023-04-01T07:56:25.047Z,19.63
2023-04-01T07:59:04.204Z,20.08
2023-04-01T08:01:36.231Z,20.15
2023-04-01T08:04:19.849Z,21.38
2023-04-01T08:06:57.129Z,21.50
2023-04-01T08:09:32.438Z,21.27
2023-04-01T08:12:13.382Z,22.70
2023-04-01T08:14:50.999Z,24.38
2023-04-01T08:17:29.145Z,22.55
2023-04-01T08:20:16.533Z,22.50
2023-04-01T08:22:51.186Z,22.10
2023-04-01T08:25:24.476Z,23.05
2023-04-01T08:27:59.116Z,21.83
2023-04-01T08:30:30.333Z,22.92
2023-04-01T08:33:02.602Z,23.23
2023-04-01T08:35:36.133Z,23.10
2023-04-01T08:38:14.135Z,23.10
2023-04-01T08:41:00.401Z,23.85
2023-04-01T08:43:49.740Z,23.17
2023-04-01T08:46:31.914Z,23.63
2023-04-01T08:49:20.425Z,24.02
2023-04-01T08:52:18.196Z,22.60
2023-04-01T08:55:17.499Z,23.27
2023-04-01T08:57:55.398Z,22.02
2023-04-01T09:00:32.764Z,22.83
2023-04-01T09:03:31.465Z,22.20
2023-04-01T09:06:14.903Z,20.88
2023-04-01T09:08:55.082Z,20.50
2023-04-01T09:11:41.112Z,21.40
2023-04-01T09:14:25.023Z,22.25
2023-04-01T09:17:39.095Z,22.55
2023-04-01T09:20:34.831Z,23.42
2023-04-01T09:23:25.040Z,23.52
2023-04-01T09:26:08.494Z,22.75
2023-04-01T09:28:47.726Z,24.10
2023-04-01T09:31:45.756Z,23.80
2023-04-01T09:34:39.433Z,22.92
2023-04-01T09:37:33.747Z,26.85
2023-04-01T09:40:25.341Z,26.80
2023-04-01T09:43:16.429Z,25.80
2023-04-01T09:45:56.375Z,24.88
2023-04-01T09:48:38.777Z,25.80
2023-04-01T09:51:25.026Z,25.70
2023-04-01T09:54:07.114Z,24.75
2023-04-01T09:57:04.625Z,23.65
2023-04-01T10:00:01.234Z,22.65
2023-04-01T10:03:14.398Z,21.80
2023-04-01T10:06:23.782Z,21.58
2023-04-01T10:09:34.513Z,22.80
2023-04-01T10:12:41.799Z,22.48
2023-04-01T10:15:37.292Z,24.13
2023-04-01T10:18:41.271Z,23.85
2023-04-01T10:21:55.688Z,23.95
2023-04-01T10:25:04.282Z,25.60
2023-04-01T10:28:00.797Z,24.27
2023-04-01T10:31:13.662Z,24.67
2023-04-01T10:34:07.985Z,25.42
2023-04-01T10:36:59.237Z,24.75
2023-04-01T10:39:56.603Z,24.02
2023-04-01T10:42:54.249Z,23.42
2023-04-01T10:45:57.971Z,22.88
2023-04-01T10:49:08.269Z,23.75
2023-04-01T10:52:09.912Z,23.17
2023-04-01T10:54:51.406Z,23.67
2023-04-01T10:57:53.732Z,25.45
2023-04-01T11:00:59.648Z,25.55
2023-04-01T11:04:48.912Z,25.83
2023-04-01T11:08:12.836Z,25.40
2023-04-01T11:11:42.707Z,24.10
2023-04-01T11:14:41.216Z,23.95
2023-04-01T11:17:44.319Z,25.00
2023-04-01T11:20:50.442Z,25.80
2023-04-01T11:23:45.529Z,24.88
2023-04-01T11:26:28.720Z,24.13
2023-04-01T11:29:18.543Z,24.42
2023-04-01T11:31:59.103Z,23.70
2023-04-01T11:34:43.833Z,23.25
2023-04-01T11:37:24.377Z,23.58
2023-04-01T11:40:08.925Z,23.20
2023-04-01T11:42:46.206Z,23.90
2023-04-01T11:45:26.692Z,23.55
2023-04-01T11:48:05.786Z,25.63
2023-04-01T11:50:47.758Z,27.27
2023-04-01T11:53:30.696Z,25.05
2023-04-01T11:56:27.397Z,25.88
2023-04-01T11:59:19.380Z,25.80
2023-04-01T12:01:58.920Z,25.38
2023-04-01T12:04:45.228Z,24.67
2023-04-01T12:07:24.160Z,24.42
2023-04-01T12:10:06.047Z,24.08
2023-04-01T12:12:54.185Z,24.08
2023-04-01T12:15:35.504Z,24.60
2023-04-01T12:18:15.166Z,25.27
2023-04-01T12:20:57.691Z,25.25
2023-04-01T12:23:48.960Z,24.50
2023-04-01T12:26:38.868Z,24.52
2023-04-01T12:29:32.544Z,24.05
2023-04-01T12:32:11.646Z,23.45
2023-04-01T12:35:03.309Z,23.95
2023-04-01T12:37:44.763Z,23.95
2023-04-01T12:40:49.300Z,23.85
2023-04-01T12:43:40.897Z,24.25
2023-04-01T12:46:18.604Z,24.63
2023-04-01T12:49:14.338Z,25.00
2023-04-01T12:52:12.351Z,25.40
2023-04-01T12:55:25.832Z,25.02
2023-04-01T12:58:37.414Z,25.38
2023-04-01T13:01:31.648Z,26.58
2023-04-01T13:04:16.772Z,25.85
2023-04-01T13:06:58.008Z,26.00
2023-04-01T13:09:38.051Z,26.85
2023-04-01T13:12:27.240Z,23.70
2023-04-01T13:15:18.857Z,24.10
2023-04-01T13:17:55.305Z,24.67
2023-04-01T13:20:35.130Z,24.92
2023-04-01T13:23:16.377Z,25.23
2023-04-01T13:26:06.945Z,23.45
2023-04-01T13:28:43.771Z,24.48
2023-04-01T13:31:25.432Z,23.75
2023-04-01T13:34:06.156Z,23.35
2023-04-01T13:36:41.413Z,23.33
2023-04-01T13:39:25.823Z,24.23
2023-04-01T13:42:07.959Z,23.33
2023-04-01T13:44:40.891Z,24.33
2023-04-01T13:47:25.436Z,22.95
2023-04-01T13:50:11.215Z,23.75
2023-04-01T13:53:06.789Z,23.13
2023-04-01T13:56:08.751Z,23.85
2023-04-01T13:58:49.952Z,23.70
2023-04-01T14:01:26.050Z,24.58
2023-04-01T14:04:24.146Z,23.92
2023-04-01T14:07:10.902Z,23.92
2023-04-01T14:09:53.790Z,25.05
2023-04-01T14:12:32.624Z,23.85
2023-04-01T14:15:34.739Z,25.15
2023-04-01T14:18:19.617Z,24.40
2023-04-01T14:20:58.199Z,24.25
2023-04-01T14:28:52.524Z,24.88
2023-04-01T14:31:34.375Z,24.60
2023-04-01T14:34:15.057Z,25.30
2023-04-01T14:37:01.876Z,25.60
2023-04-01T14:39:46.391Z,26.08
2023-04-01T14:42:26.234Z,25.33
2023-04-01T14:59:10.581Z,25.42
2023-04-01T15:05:36.549Z,25.42
2023-04-01T15:08:32.762Z,24.38
2023-04-01T15:11:49.569Z,24.20
2023-04-01T15:18:09.853Z,24.23
2023-04-01T15:24:23.329Z,23.38
2023-04-01T15:27:15.824Z,22.88
2023-04-01T15:30:05.998Z,22.38
2023-04-01T15:32:48.275Z,22.38
2023-04-01T15:35:28.276Z,22.40
2023-04-01T15:37:59.106Z,21.70
2023-04-01T15:40:31.947Z,22.15
2023-04-01T15:43:14.909Z,22.13
2023-04-01T15:46:00.462Z,21.88
2023-04-01T15:48:43.251Z,22.50
2023-04-01T15:51:45.993Z,22.73
2023-04-01T15:55:03.134Z,22.27
2023-04-01T15:57:37.090Z,21.67
2023-04-01T16:00:27.962Z,22.52
2023-04-01T16:03:25.622Z,22.00
2023-04-01T16:06:14.024Z,21.77
2023-04-01T16:09:04.358Z,22.35
2023-04-01T16:11:45.682Z,21.88
2023-04-01T16:14:36.135Z,21.58
2023-04-01T16:17:22.705Z,20.98
2023-04-01T16:19:55.814Z,22.23
2023-04-01T16:22:29.231Z,22.50
2023-04-01T16:25:08.050Z,21.73
2023-04-01T16:27:42.455Z,22.05
2023-04-01T16:30:28.658Z,22.40
2023-04-01T16:33:03.897Z,23.08
2023-04-01T16:35:42.568Z,24.92
2023-04-01T16:38:21.051Z,23.52
2023-04-01T16:41:01.201Z,24.58
2023-04-01T16:43:39.916Z,23.52
2023-04-01T16:46:23.402Z,22.77
2023-04-01T16:49:02.211Z,23.10
2023-04-01T16:51:44.130Z,23.90
2023-04-01T16:54:19.644Z,23.27
2023-04-01T16:56:52.762Z,23.58
2023-04-01T16:59:27.129Z,23.00
2023-04-01T17:01:57.514Z,23.45
2023-04-01T17:04:34.138Z,24.40
2023-04-01T17:07:13.989Z,24.13
2023-04-01T17:09:56.752Z,24.20
2023-04-01T17:12:30.333Z,24.50
2023-04-01T17:15:08.382Z,25.00
2023-04-01T17:17:45.481Z,25.00
2023-04-01T17:20:38.755Z,24.25
2023-04-01T17:23:17.832Z,24.02
2023-04-01T17:26:08.578Z,24.15
2023-04-01T17:28:50.540Z,24.65
2023-04-01T17:31:33.441Z,23.83
2023-04-01T17:34:19.612Z,24.05
2023-04-01T17:37:08.621Z,25.05
2023-04-01T17:39:49.499Z,24.40
2023-04-01T17:42:24.262Z,24.08
2023-04-01T17:45:05.509Z,23.95
2023-04-01T17:47:52.193Z,24.85
2023-04-01T17:50:26.034Z,24.80
2023-04-01T17:53:08.882Z,25.60
2023-04-01T17:56:01.733Z,25.40
2023-04-01T17:58:35.825Z,24.92
2023-04-01T18:01:37.305Z,25.13
2023-04-01T18:04:41.565Z,25.38
2023-04-01T18:07:29.834Z,24.80
2023-04-01T18:10:14.550Z,24.80
2023-04-01T18:13:11.543Z,24.67
2023-04-01T18:15:45.989Z,24.40
2023-04-01T18:18:32.076Z,24.58
2023-04-01T18:21:06.962Z,24.77
2023-04-01T18:23:44.548Z,25.25
2023-04-01T18:26:28.289Z,25.05
2023-04-01T18:29:03.875Z,24.95
2023-04-01T18:31:38.325Z,24.40
2023-04-01T18:34:15.093Z,25.10
2023-04-01T18:36:51.109Z,26.45
2023-04-01T18:39:25.577Z,26.35
2023-04-01T18:42:02.193Z,26.85
2023-04-01T18:44:40.790Z,26.70
2023-04-01T18:47:22.139Z,26.08
2023-04-01T18:49:57.681Z,26.60
2023-04-01T18:52:33.624Z,26.75
2023-04-01T18:55:35.376Z,27.42
2023-04-01T18:58:19.651Z,26.75
2023-04-01T19:00:56.566Z,26.40
2023-04-01T19:03:34.412Z,26.00
2023-04-01T19:06:11.151Z,26.35
2023-04-01T19:08:43.248Z,26.85
2023-04-01T19:11:15.850Z,26.60
2023-04-01T19:13:53.511Z,27.15
2023-04-01T19:16:32.645Z,25.95
2023-04-01T19:19:15.394Z,26.48
2023-04-01T19:21:47.835Z,26.45
2023-04-01T19:24:49.533Z,26.75
2023-04-01T19:27:27.477Z,26.63
2023-04-01T19:30:19.508Z,26.83
2023-04-01T19:32:58.366Z,26.73
2023-04-01T19:35:38.240Z,26.30
2023-04-01T19:38:18.999Z,26.40
2023-04-01T19:40:55.712Z,25.50
2023-04-01T19:43:52.938Z,25.35
2023-04-01T19:46:30.050Z,26.33
2023-04-01T19:49:32.649Z,27.17
2023-04-01T19:52:06.507Z,26.70
2023-04-01T19:54:47.999Z,27.42
2023-04-01T19:57:24.881Z,27.23
2023-04-01T20:00:01.766Z,26.55
2023-04-01T20:02:42.595Z,26.30
2023-04-01T20:05:41.219Z,26.65
2023-04-01T20:08:19.524Z,28.92
2023-04-01T20:11:04.269Z,29.38
2023-04-01T20:13:47.873Z,29.73
2023-04-01T20:16:21.066Z,29.50
2023-04-01T20:18:58.072Z,29.15
2023-04-01T20:21:38.711Z,29.73
2023-04-01T20:24:40.164Z,29.17
2023-04-01T20:27:20.827Z,28.67
2023-04-01T20:30:31.465Z,30.00
2023-04-01T20:33:19.033Z,29.27
2023-04-01T20:35:59.724Z,28.45
2023-04-01T20:38:53.001Z,29.55
2023-04-01T20:41:29.567Z,29.98
2023-04-01T20:44:11.934Z,30.73
2023-04-01T20:46:50.536Z,30.63
2023-04-01T20:49:43.815Z,30.05
2023-04-01T20:52:41.839Z,31.42
2023-04-01T20:55:53.761Z,31.08
2023-04-01T20:58:31.571Z,30.23
2023-04-01T21:01:10.986Z,30.05
2023-04-01T21:03:48.704Z,30.48
2023-04-01T21:06:47.361Z,28.40
2023-04-01T21:09:34.575Z,28.23
2023-04-01T21:12:16.075Z,28.35
2023-04-01T21:15:06.003Z,28.67
2023-04-01T21:17:52.873Z,28.50
2023-04-01T21:20:50.547Z,28.30
2023-04-01T21:23:51.261Z,28.88
2023-04-01T21:26:40.022Z,30.30
2023-04-01T21:29:21.445Z,30.75
2023-04-01T21:32:07.607Z,29.20
2023-04-01T21:34:46.355Z,29.38
2023-04-01T21:37:35.589Z,29.48
2023-04-01T21:40:40.543Z,29.60
2023-04-01T21:43:20.302Z,28.63
2023-04-01T21:46:28.112Z,29.63
2023-04-01T21:49:24.389Z,27.80
2023-04-01T21:52:32.630Z,27.33
2023-04-01T21:55:45.643Z,28.05
2023-04-01T21:58:46.204Z,25.60
2023-04-01T22:01:35.416Z,26.63
2023-04-01T22:04:28.038Z,26.92
2023-04-01T22:07:02.870Z,27.30
2023-04-01T22:09:38.998Z,27.75
2023-04-01T22:12:16.454Z,28.75
2023-04-01T22:14:51.486Z,27.98
2023-04-01T22:17:29.435Z,28.92
2023-04-01T22:20:11.146Z,29.42
2023-04-01T22:22:58.850Z,29.77
2023-04-01T22:25:33.745Z,29.60
2023-04-01T22:28:07.183Z,29.88
2023-04-01T22:30:38.766Z,28.73
2023-04-01T22:33:12.899Z,29.20
2023-04-01T22:35:55.965Z,28.23
2023-04-01T22:38:39.278Z,29.27
2023-04-01T22:41:14.977Z,29.80
2023-04-01T22:43:48.379Z,29.63
2023-04-01T22:46:33.679Z,29.00
2023-04-01T22:49:10.596Z,30.42
2023-04-01T22:51:47.180Z,31.90
2023-04-01T22:54:23.969Z,31.02
2023-04-01T22:56:55.883Z,31.90
2023-04-01T22:59:32.754Z,31.47
2023-04-01T23:02:08.340Z,31.43
2023-04-01T23:04:45.013Z,32.07
2023-04-01T23:07:38.093Z,32.70
2023-04-01T23:10:14.368Z,32.30
2023-04-01T23:12:44.066Z,33.20
2023-04-01T23:15:16.699Z,33.00
2023-04-01T23:18:01.713Z,33.03
2023-04-01T23:20:39.247Z,33.05
2023-04-01T23:23:32.041Z,32.83
2023-04-01T23:26:09.005Z,32.92
2023-04-01T23:28:49.998Z,33.50
2023-04-01T23:31:33.488Z,34.10
2023-04-01T23:34:04.430Z,33.30
2023-04-01T23:36:34.174Z,33.85
2023-04-01T23:39:08.631Z,32.20
2023-04-01T23:41:37.142Z,32.72
2023-04-01T23:44:11.751Z,32.37
2023-04-01T23:46:50.742Z,33.23
2023-04-01T23:49:35.655Z,32.40
2023-04-01T23:52:12.904Z,32.30
2023-04-01T23:54:50.621Z,32.55
2023-04-01T23:57:24.076Z,32.33
